sensor_id;sensor_type;location;lat;lon;timestamp;P1;durP1;ratioP1;P2;durP2;ratioP2
66966;SDS011;53900;51.468;-2.586;2023-08-06T00:00:41;2.08;;;1.05;;
66966;SDS011;53900;51.468;-2.586;2023-08-06T00:03:06;1.10;;;0.98;;
66966;SDS011;53900;51.468;-2.586;2023-08-06T00:05:31;1.88;;;1.30;;
66966;SDS011;53900;51.468;-2.586;2023-08-06T00:07:56;1.90;;;1.10;;
66966;SDS011;53900;51.468;-2.586;2023-08-06T00:10:21;4.65;;;1.25;;
66966;SDS011;53900;51.468;-2.586;2023-08-06T00:12:47;1.25;;;1.08;;
66966;SDS011;53900;51.468;-2.586;2023-08-06T00:15:12;3.45;;;1.25;;
66966;SDS011;53900;51.468;-2.586;2023-08-06T00:17:38;4.15;;;1.20;;
66966;SDS011;53900;51.468;-2.586;2023-08-06T00:20:03;3.33;;;1.35;;
66966;SDS011;53900;51.468;-2.586;2023-08-06T00:22:34;4.05;;;1.42;;
66966;SDS011;53900;51.468;-2.586;2023-08-06T00:24:59;2.45;;;1.30;;
66966;SDS011;53900;51.468;-2.586;2023-08-06T00:27:25;4.63;;;1.25;;
66966;SDS011;53900;51.468;-2.586;2023-08-06T00:29:50;2.47;;;1.10;;
66966;SDS011;53900;51.468;-2.586;2023-08-06T00:32:15;2.50;;;1.10;;
66966;SDS011;53900;51.468;-2.586;2023-08-06T00:34:40;1.30;;;0.95;;
66966;SDS011;53900;51.468;-2.586;2023-08-06T00:37:05;3.20;;;1.30;;
66966;SDS011;53900;51.468;-2.586;2023-08-06T00:39:31;1.50;;;1.02;;
66966;SDS011;53900;51.468;-2.586;2023-08-06T00:41:56;2.53;;;1.50;;
66966;SDS011;53900;51.468;-2.586;2023-08-06T00:44:23;2.78;;;1.27;;
66966;SDS011;53900;51.468;-2.586;2023-08-06T00:46:48;2.20;;;1.20;;
66966;SDS011;53900;51.468;-2.586;2023-08-06T00:49:13;4.30;;;1.38;;
66966;SDS011;53900;51.468;-2.586;2023-08-06T00:51:38;1.90;;;0.98;;
66966;SDS011;53900;51.468;-2.586;2023-08-06T00:54:04;2.45;;;1.30;;
66966;SDS011;53900;51.468;-2.586;2023-08-06T00:56:29;4.03;;;1.17;;
66966;SDS011;53900;51.468;-2.586;2023-08-06T00:58:54;4.22;;;1.00;;
66966;SDS011;53900;51.468;-2.586;2023-08-06T01:01:19;1.77;;;1.20;;
66966;SDS011;53900;51.468;-2.586;2023-08-06T01:03:45;4.20;;;0.98;;
66966;SDS011;53900;51.468;-2.586;2023-08-06T01:06:11;3.38;;;1.60;;
66966;SDS011;53900;51.468;-2.586;2023-08-06T01:08:49;5.47;;;1.40;;
66966;SDS011;53900;51.468;-2.586;2023-08-06T01:11:26;4.28;;;1.40;;
66966;SDS011;53900;51.468;-2.586;2023-08-06T01:14:00;2.17;;;1.13;;
66966;SDS011;53900;51.468;-2.586;2023-08-06T01:16:27;1.40;;;1.30;;
66966;SDS011;53900;51.468;-2.586;2023-08-06T01:18:53;3.78;;;1.20;;
66966;SDS011;53900;51.468;-2.586;2023-08-06T01:21:18;2.40;;;1.38;;
66966;SDS011;53900;51.468;-2.586;2023-08-06T01:23:44;3.28;;;1.40;;
66966;SDS011;53900;51.468;-2.586;2023-08-06T01:26:22;3.22;;;1.30;;
66966;SDS011;53900;51.468;-2.586;2023-08-06T01:31:22;2.97;;;1.20;;
66966;SDS011;53900;51.468;-2.586;2023-08-06T01:33:49;2.60;;;1.20;;
66966;SDS011;53900;51.468;-2.586;2023-08-06T01:36:15;2.83;;;1.35;;
66966;SDS011;53900;51.468;-2.586;2023-08-06T01:38:41;2.22;;;1.20;;
66966;SDS011;53900;51.468;-2.586;2023-08-06T01:41:06;2.13;;;1.23;;
66966;SDS011;53900;51.468;-2.586;2023-08-06T01:43:32;3.83;;;1.50;;
66966;SDS011;53900;51.468;-2.586;2023-08-06T01:45:57;3.83;;;1.45;;
66966;SDS011;53900;51.468;-2.586;2023-08-06T01:48:22;5.78;;;1.42;;
66966;SDS011;53900;51.468;-2.586;2023-08-06T01:50:47;4.47;;;1.80;;
66966;SDS011;53900;51.468;-2.586;2023-08-06T01:53:12;5.45;;;1.73;;
66966;SDS011;53900;51.468;-2.586;2023-08-06T01:55:38;5.60;;;1.80;;
66966;SDS011;53900;51.468;-2.586;2023-08-06T01:58:03;2.92;;;1.33;;
66966;SDS011;53900;51.468;-2.586;2023-08-06T02:00:28;2.17;;;1.27;;
66966;SDS011;53900;51.468;-2.586;2023-08-06T02:02:53;3.40;;;1.20;;
66966;SDS011;53900;51.468;-2.586;2023-08-06T02:05:19;1.63;;;1.10;;
66966;SDS011;53900;51.468;-2.586;2023-08-06T02:07:44;4.63;;;1.08;;
66966;SDS011;53900;51.468;-2.586;2023-08-06T02:10:09;3.65;;;1.30;;
66966;SDS011;53900;51.468;-2.586;2023-08-06T02:12:34;3.58;;;1.20;;
66966;SDS011;53900;51.468;-2.586;2023-08-06T02:15:00;5.50;;;1.30;;
66966;SDS011;53900;51.468;-2.586;2023-08-06T02:17:25;4.47;;;1.35;;
66966;SDS011;53900;51.468;-2.586;2023-08-06T02:19:50;1.73;;;1.30;;
66966;SDS011;53900;51.468;-2.586;2023-08-06T02:22:15;3.70;;;1.13;;
66966;SDS011;53900;51.468;-2.586;2023-08-06T02:24:40;5.35;;;1.35;;
66966;SDS011;53900;51.468;-2.586;2023-08-06T02:27:06;6.75;;;2.08;;
66966;SDS011;53900;51.468;-2.586;2023-08-06T02:29:31;3.80;;;1.38;;
66966;SDS011;53900;51.468;-2.586;2023-08-06T02:31:56;7.38;;;1.90;;
66966;SDS011;53900;51.468;-2.586;2023-08-06T02:34:22;5.38;;;2.00;;
66966;SDS011;53900;51.468;-2.586;2023-08-06T02:36:47;5.32;;;1.80;;
66966;SDS011;53900;51.468;-2.586;2023-08-06T02:39:12;3.33;;;1.67;;
66966;SDS011;53900;51.468;-2.586;2023-08-06T02:41:37;5.25;;;1.50;;
66966;SDS011;53900;51.468;-2.586;2023-08-06T02:44:02;3.22;;;1.60;;
66966;SDS011;53900;51.468;-2.586;2023-08-06T02:46:28;2.10;;;1.45;;
66966;SDS011;53900;51.468;-2.586;2023-08-06T02:48:53;2.33;;;1.20;;
66966;SDS011;53900;51.468;-2.586;2023-08-06T02:51:18;3.97;;;1.40;;
66966;SDS011;53900;51.468;-2.586;2023-08-06T02:53:43;3.03;;;1.20;;
66966;SDS011;53900;51.468;-2.586;2023-08-06T02:56:08;2.50;;;1.40;;
66966;SDS011;53900;51.468;-2.586;2023-08-06T02:58:34;1.15;;;1.00;;
66966;SDS011;53900;51.468;-2.586;2023-08-06T03:01:00;3.05;;;1.40;;
66966;SDS011;53900;51.468;-2.586;2023-08-06T03:03:25;4.15;;;1.05;;
66966;SDS011;53900;51.468;-2.586;2023-08-06T03:05:53;2.08;;;1.00;;
66966;SDS011;53900;51.468;-2.586;2023-08-06T03:08:19;2.13;;;1.33;;
66966;SDS011;53900;51.468;-2.586;2023-08-06T03:10:47;4.82;;;1.40;;
66966;SDS011;53900;51.468;-2.586;2023-08-06T03:13:12;2.00;;;1.10;;
66966;SDS011;53900;51.468;-2.586;2023-08-06T03:15:37;3.33;;;1.23;;
66966;SDS011;53900;51.468;-2.586;2023-08-06T03:18:03;9.98;;;1.50;;
66966;SDS011;53900;51.468;-2.586;2023-08-06T03:20:28;3.33;;;1.10;;
66966;SDS011;53900;51.468;-2.586;2023-08-06T03:22:53;3.38;;;1.13;;
66966;SDS011;53900;51.468;-2.586;2023-08-06T03:25:18;2.25;;;1.40;;
66966;SDS011;53900;51.468;-2.586;2023-08-06T03:27:43;4.55;;;1.30;;
66966;SDS011;53900;51.468;-2.586;2023-08-06T03:30:09;6.63;;;1.35;;
66966;SDS011;53900;51.468;-2.586;2023-08-06T03:32:34;1.88;;;1.30;;
66966;SDS011;53900;51.468;-2.586;2023-08-06T03:34:59;9.60;;;1.52;;
66966;SDS011;53900;51.468;-2.586;2023-08-06T03:37:24;4.18;;;1.60;;
66966;SDS011;53900;51.468;-2.586;2023-08-06T03:39:49;3.15;;;1.42;;
66966;SDS011;53900;51.468;-2.586;2023-08-06T03:42:15;2.28;;;1.23;;
66966;SDS011;53900;51.468;-2.586;2023-08-06T03:44:40;3.42;;;1.45;;
66966;SDS011;53900;51.468;-2.586;2023-08-06T03:47:05;2.38;;;1.65;;
66966;SDS011;53900;51.468;-2.586;2023-08-06T03:49:31;4.13;;;2.13;;
66966;SDS011;53900;51.468;-2.586;2023-08-06T03:51:56;5.70;;;2.10;;
66966;SDS011;53900;51.468;-2.586;2023-08-06T03:54:22;3.08;;;1.38;;
66966;SDS011;53900;51.468;-2.586;2023-08-06T03:56:47;2.30;;;1.25;;
66966;SDS011;53900;51.468;-2.586;2023-08-06T03:59:13;5.80;;;1.40;;
66966;SDS011;53900;51.468;-2.586;2023-08-06T04:01:38;1.83;;;1.27;;
66966;SDS011;53900;51.468;-2.586;2023-08-06T04:04:03;3.88;;;1.42;;
66966;SDS011;53900;51.468;-2.586;2023-08-06T04:06:29;4.05;;;1.52;;
66966;SDS011;53900;51.468;-2.586;2023-08-06T04:08:54;4.55;;;1.48;;
66966;SDS011;53900;51.468;-2.586;2023-08-06T04:11:19;4.00;;;1.05;;
66966;SDS011;53900;51.468;-2.586;2023-08-06T04:13:44;2.90;;;1.05;;
66966;SDS011;53900;51.468;-2.586;2023-08-06T04:16:10;3.53;;;1.30;;
66966;SDS011;53900;51.468;-2.586;2023-08-06T04:18:35;2.17;;;1.30;;
66966;SDS011;53900;51.468;-2.586;2023-08-06T04:21:01;2.83;;;1.27;;
66966;SDS011;53900;51.468;-2.586;2023-08-06T04:23:26;3.83;;;1.48;;
66966;SDS011;53900;51.468;-2.586;2023-08-06T04:25:51;3.60;;;1.23;;
66966;SDS011;53900;51.468;-2.586;2023-08-06T04:28:17;3.78;;;1.17;;
66966;SDS011;53900;51.468;-2.586;2023-08-06T04:30:42;1.75;;;1.17;;
66966;SDS011;53900;51.468;-2.586;2023-08-06T04:33:07;3.22;;;1.17;;
66966;SDS011;53900;51.468;-2.586;2023-08-06T04:35:32;3.53;;;1.10;;
66966;SDS011;53900;51.468;-2.586;2023-08-06T04:37:58;10.40;;;1.45;;
66966;SDS011;53900;51.468;-2.586;2023-08-06T04:40:23;4.05;;;1.23;;
66966;SDS011;53900;51.468;-2.586;2023-08-06T04:42:48;2.53;;;1.10;;
66966;SDS011;53900;51.468;-2.586;2023-08-06T04:45:13;4.45;;;1.27;;
66966;SDS011;53900;51.468;-2.586;2023-08-06T04:47:39;2.83;;;1.38;;
66966;SDS011;53900;51.468;-2.586;2023-08-06T04:50:04;2.00;;;1.00;;
66966;SDS011;53900;51.468;-2.586;2023-08-06T04:52:29;3.72;;;1.20;;
66966;SDS011;53900;51.468;-2.586;2023-08-06T04:54:57;2.60;;;1.10;;
66966;SDS011;53900;51.468;-2.586;2023-08-06T04:57:22;6.30;;;1.23;;
66966;SDS011;53900;51.468;-2.586;2023-08-06T04:59:47;4.75;;;1.15;;
66966;SDS011;53900;51.468;-2.586;2023-08-06T05:02:12;3.75;;;1.30;;
66966;SDS011;53900;51.468;-2.586;2023-08-06T05:04:38;2.78;;;1.33;;
66966;SDS011;53900;51.468;-2.586;2023-08-06T05:07:03;4.53;;;1.20;;
66966;SDS011;53900;51.468;-2.586;2023-08-06T05:09:28;4.38;;;1.20;;
66966;SDS011;53900;51.468;-2.586;2023-08-06T05:11:54;4.13;;;1.10;;
66966;SDS011;53900;51.468;-2.586;2023-08-06T05:14:19;3.35;;;1.15;;
66966;SDS011;53900;51.468;-2.586;2023-08-06T05:16:44;5.30;;;1.58;;
66966;SDS011;53900;51.468;-2.586;2023-08-06T05:19:09;4.88;;;1.35;;
66966;SDS011;53900;51.468;-2.586;2023-08-06T05:21:34;2.00;;;1.30;;
66966;SDS011;53900;51.468;-2.586;2023-08-06T05:24:00;5.75;;;1.42;;
66966;SDS011;53900;51.468;-2.586;2023-08-06T05:26:25;8.13;;;2.25;;
66966;SDS011;53900;51.468;-2.586;2023-08-06T05:28:50;3.08;;;1.60;;
66966;SDS011;53900;51.468;-2.586;2023-08-06T05:31:15;3.72;;;1.42;;
66966;SDS011;53900;51.468;-2.586;2023-08-06T05:33:40;2.25;;;1.40;;
66966;SDS011;53900;51.468;-2.586;2023-08-06T05:36:06;3.60;;;1.50;;
66966;SDS011;53900;51.468;-2.586;2023-08-06T05:38:31;2.95;;;1.40;;
66966;SDS011;53900;51.468;-2.586;2023-08-06T05:40:56;3.20;;;1.40;;
66966;SDS011;53900;51.468;-2.586;2023-08-06T05:43:22;6.65;;;1.90;;
66966;SDS011;53900;51.468;-2.586;2023-08-06T05:45:49;4.68;;;1.30;;
66966;SDS011;53900;51.468;-2.586;2023-08-06T05:48:14;3.38;;;1.23;;
66966;SDS011;53900;51.468;-2.586;2023-08-06T05:50:39;4.15;;;1.45;;
66966;SDS011;53900;51.468;-2.586;2023-08-06T05:53:04;4.07;;;1.20;;
66966;SDS011;53900;51.468;-2.586;2023-08-06T05:55:30;2.60;;;0.95;;
66966;SDS011;53900;51.468;-2.586;2023-08-06T05:57:57;2.38;;;1.17;;
66966;SDS011;53900;51.468;-2.586;2023-08-06T06:00:22;2.75;;;1.27;;
66966;SDS011;53900;51.468;-2.586;2023-08-06T06:02:47;2.53;;;1.20;;
66966;SDS011;53900;51.468;-2.586;2023-08-06T06:05:13;2.92;;;1.20;;
66966;SDS011;53900;51.468;-2.586;2023-08-06T06:07:38;4.60;;;1.30;;
66966;SDS011;53900;51.468;-2.586;2023-08-06T06:10:03;2.67;;;1.10;;
66966;SDS011;53900;51.468;-2.586;2023-08-06T06:12:29;1.98;;;1.10;;
66966;SDS011;53900;51.468;-2.586;2023-08-06T06:14:54;3.47;;;1.10;;
66966;SDS011;53900;51.468;-2.586;2023-08-06T06:17:19;2.28;;;1.27;;
66966;SDS011;53900;51.468;-2.586;2023-08-06T06:19:44;5.43;;;1.02;;
66966;SDS011;53900;51.468;-2.586;2023-08-06T06:22:09;2.45;;;1.20;;
66966;SDS011;53900;51.468;-2.586;2023-08-06T06:24:35;3.38;;;1.00;;
66966;SDS011;53900;51.468;-2.586;2023-08-06T06:27:00;3.75;;;0.95;;
66966;SDS011;53900;51.468;-2.586;2023-08-06T06:29:25;4.53;;;1.20;;
66966;SDS011;53900;51.468;-2.586;2023-08-06T06:31:50;3.70;;;1.20;;
66966;SDS011;53900;51.468;-2.586;2023-08-06T06:34:16;5.68;;;1.70;;
66966;SDS011;53900;51.468;-2.586;2023-08-06T06:36:41;5.40;;;1.27;;
66966;SDS011;53900;51.468;-2.586;2023-08-06T06:39:06;4.30;;;1.20;;
66966;SDS011;53900;51.468;-2.586;2023-08-06T06:41:33;2.72;;;1.10;;
66966;SDS011;53900;51.468;-2.586;2023-08-06T06:43:58;5.90;;;1.17;;
66966;SDS011;53900;51.468;-2.586;2023-08-06T06:46:23;1.75;;;1.02;;
66966;SDS011;53900;51.468;-2.586;2023-08-06T06:48:48;8.50;;;1.20;;
66966;SDS011;53900;51.468;-2.586;2023-08-06T06:51:14;3.58;;;1.00;;
66966;SDS011;53900;51.468;-2.586;2023-08-06T06:53:39;3.80;;;0.90;;
66966;SDS011;53900;51.468;-2.586;2023-08-06T06:56:05;3.10;;;1.00;;
66966;SDS011;53900;51.468;-2.586;2023-08-06T06:58:30;2.10;;;0.85;;
66966;SDS011;53900;51.468;-2.586;2023-08-06T07:00:56;5.40;;;1.08;;
66966;SDS011;53900;51.468;-2.586;2023-08-06T07:03:21;2.78;;;0.90;;
66966;SDS011;53900;51.468;-2.586;2023-08-06T07:05:46;3.80;;;1.10;;
66966;SDS011;53900;51.468;-2.586;2023-08-06T07:08:11;2.20;;;1.05;;
66966;SDS011;53900;51.468;-2.586;2023-08-06T07:10:37;3.53;;;0.98;;
66966;SDS011;53900;51.468;-2.586;2023-08-06T07:13:02;1.23;;;0.75;;
66966;SDS011;53900;51.468;-2.586;2023-08-06T07:15:27;1.70;;;0.70;;
66966;SDS011;53900;51.468;-2.586;2023-08-06T07:17:53;4.63;;;0.82;;
66966;SDS011;53900;51.468;-2.586;2023-08-06T07:20:18;3.00;;;0.95;;
66966;SDS011;53900;51.468;-2.586;2023-08-06T07:22:43;4.32;;;1.45;;
66966;SDS011;53900;51.468;-2.586;2023-08-06T07:25:09;2.17;;;1.00;;
66966;SDS011;53900;51.468;-2.586;2023-08-06T07:27:34;1.88;;;0.90;;
66966;SDS011;53900;51.468;-2.586;2023-08-06T07:29:59;3.08;;;1.00;;
66966;SDS011;53900;51.468;-2.586;2023-08-06T07:32:24;2.38;;;0.90;;
66966;SDS011;53900;51.468;-2.586;2023-08-06T07:34:50;2.80;;;1.00;;
66966;SDS011;53900;51.468;-2.586;2023-08-06T07:37:18;1.60;;;0.73;;
66966;SDS011;53900;51.468;-2.586;2023-08-06T07:39:43;3.17;;;0.80;;
66966;SDS011;53900;51.468;-2.586;2023-08-06T07:42:08;1.95;;;0.80;;
66966;SDS011;53900;51.468;-2.586;2023-08-06T07:44:35;2.15;;;1.17;;
66966;SDS011;53900;51.468;-2.586;2023-08-06T07:47:00;3.15;;;0.70;;
66966;SDS011;53900;51.468;-2.586;2023-08-06T07:49:26;2.08;;;0.80;;
66966;SDS011;53900;51.468;-2.586;2023-08-06T07:51:51;1.23;;;0.80;;
66966;SDS011;53900;51.468;-2.586;2023-08-06T07:54:17;3.78;;;0.90;;
66966;SDS011;53900;51.468;-2.586;2023-08-06T07:56:43;3.40;;;0.80;;
66966;SDS011;53900;51.468;-2.586;2023-08-06T07:59:08;3.80;;;0.90;;
66966;SDS011;53900;51.468;-2.586;2023-08-06T08:01:34;1.50;;;0.70;;
66966;SDS011;53900;51.468;-2.586;2023-08-06T08:03:59;1.27;;;0.60;;
66966;SDS011;53900;51.468;-2.586;2023-08-06T08:06:25;2.42;;;1.00;;
66966;SDS011;53900;51.468;-2.586;2023-08-06T08:08:50;2.53;;;0.80;;
66966;SDS011;53900;51.468;-2.586;2023-08-06T08:11:16;0.63;;;0.50;;
66966;SDS011;53900;51.468;-2.586;2023-08-06T08:13:42;2.30;;;0.70;;
66966;SDS011;53900;51.468;-2.586;2023-08-06T08:16:08;1.25;;;0.60;;
66966;SDS011;53900;51.468;-2.586;2023-08-06T08:18:33;2.53;;;0.57;;
66966;SDS011;53900;51.468;-2.586;2023-08-06T08:20:58;1.75;;;0.73;;
66966;SDS011;53900;51.468;-2.586;2023-08-06T08:23:24;3.22;;;0.60;;
66966;SDS011;53900;51.468;-2.586;2023-08-06T08:25:49;1.10;;;0.70;;
66966;SDS011;53900;51.468;-2.586;2023-08-06T08:28:14;1.52;;;0.60;;
66966;SDS011;53900;51.468;-2.586;2023-08-06T08:30:42;2.08;;;0.73;;
66966;SDS011;53900;51.468;-2.586;2023-08-06T08:33:07;2.90;;;0.80;;
66966;SDS011;53900;51.468;-2.586;2023-08-06T08:35:33;1.55;;;0.80;;
66966;SDS011;53900;51.468;-2.586;2023-08-06T08:37:58;2.08;;;1.42;;
66966;SDS011;53900;51.468;-2.586;2023-08-06T08:40:24;1.25;;;0.60;;
66966;SDS011;53900;51.468;-2.586;2023-08-06T08:42:52;1.55;;;0.60;;
66966;SDS011;53900;51.468;-2.586;2023-08-06T08:45:17;0.50;;;0.50;;
66966;SDS011;53900;51.468;-2.586;2023-08-06T08:47:45;0.75;;;0.60;;
66966;SDS011;53900;51.468;-2.586;2023-08-06T08:50:12;2.58;;;0.60;;
66966;SDS011;53900;51.468;-2.586;2023-08-06T08:52:39;1.50;;;0.70;;
66966;SDS011;53900;51.468;-2.586;2023-08-06T08:55:07;2.95;;;0.70;;
66966;SDS011;53900;51.468;-2.586;2023-08-06T08:57:33;3.70;;;0.68;;
66966;SDS011;53900;51.468;-2.586;2023-08-06T08:59:58;1.45;;;0.77;;
66966;SDS011;53900;51.468;-2.586;2023-08-06T09:02:24;1.33;;;0.65;;
66966;SDS011;53900;51.468;-2.586;2023-08-06T09:04:50;1.75;;;0.85;;
66966;SDS011;53900;51.468;-2.586;2023-08-06T09:07:17;1.10;;;0.60;;
66966;SDS011;53900;51.468;-2.586;2023-08-06T09:09:43;2.25;;;0.80;;
66966;SDS011;53900;51.468;-2.586;2023-08-06T09:12:15;2.70;;;0.75;;
66966;SDS011;53900;51.468;-2.586;2023-08-06T09:14:40;0.63;;;0.60;;
66966;SDS011;53900;51.468;-2.586;2023-08-06T09:17:05;5.15;;;1.00;;
66966;SDS011;53900;51.468;-2.586;2023-08-06T09:19:31;0.90;;;0.70;;
66966;SDS011;53900;51.468;-2.586;2023-08-06T09:21:56;1.55;;;0.75;;
66966;SDS011;53900;51.468;-2.586;2023-08-06T09:24:22;2.75;;;0.70;;
66966;SDS011;53900;51.468;-2.586;2023-08-06T09:26:47;2.65;;;0.70;;
66966;SDS011;53900;51.468;-2.586;2023-08-06T09:29:12;2.30;;;0.80;;
66966;SDS011;53900;51.468;-2.586;2023-08-06T09:34:10;1.23;;;0.70;;
66966;SDS011;53900;51.468;-2.586;2023-08-06T09:36:38;1.05;;;0.77;;
66966;SDS011;53900;51.468;-2.586;2023-08-06T09:39:10;0.73;;;0.63;;
66966;SDS011;53900;51.468;-2.586;2023-08-06T09:41:37;1.30;;;0.77;;
66966;SDS011;53900;51.468;-2.586;2023-08-06T09:44:02;1.65;;;0.80;;
66966;SDS011;53900;51.468;-2.586;2023-08-06T09:46:28;3.67;;;0.80;;
66966;SDS011;53900;51.468;-2.586;2023-08-06T09:48:53;3.30;;;0.70;;
66966;SDS011;53900;51.468;-2.586;2023-08-06T09:51:19;2.85;;;0.70;;
66966;SDS011;53900;51.468;-2.586;2023-08-06T09:53:45;1.50;;;0.90;;
66966;SDS011;53900;51.468;-2.586;2023-08-06T09:56:11;1.95;;;0.70;;
66966;SDS011;53900;51.468;-2.586;2023-08-06T09:58:38;3.45;;;0.60;;
66966;SDS011;53900;51.468;-2.586;2023-08-06T10:01:04;1.77;;;0.75;;
66966;SDS011;53900;51.468;-2.586;2023-08-06T10:03:30;2.85;;;0.65;;
66966;SDS011;53900;51.468;-2.586;2023-08-06T10:05:55;1.35;;;0.60;;
66966;SDS011;53900;51.468;-2.586;2023-08-06T10:08:21;1.75;;;0.70;;
66966;SDS011;53900;51.468;-2.586;2023-08-06T10:10:47;0.50;;;0.50;;
66966;SDS011;53900;51.468;-2.586;2023-08-06T10:13:12;1.65;;;0.65;;
66966;SDS011;53900;51.468;-2.586;2023-08-06T10:15:38;1.25;;;0.43;;
66966;SDS011;53900;51.468;-2.586;2023-08-06T10:18:04;1.13;;;0.50;;
66966;SDS011;53900;51.468;-2.586;2023-08-06T10:20:33;0.93;;;0.55;;
66966;SDS011;53900;51.468;-2.586;2023-08-06T10:23:02;1.27;;;0.60;;
66966;SDS011;53900;51.468;-2.586;2023-08-06T10:25:30;0.77;;;0.60;;
66966;SDS011;53900;51.468;-2.586;2023-08-06T10:27:55;0.80;;;0.50;;
66966;SDS011;53900;51.468;-2.586;2023-08-06T10:32:46;1.92;;;0.70;;
66966;SDS011;53900;51.468;-2.586;2023-08-06T10:35:27;1.23;;;0.57;;
66966;SDS011;53900;51.468;-2.586;2023-08-06T10:37:53;1.27;;;0.68;;
66966;SDS011;53900;51.468;-2.586;2023-08-06T10:40:20;4.95;;;0.63;;
66966;SDS011;53900;51.468;-2.586;2023-08-06T10:42:45;3.17;;;0.80;;
66966;SDS011;53900;51.468;-2.586;2023-08-06T10:45:15;1.95;;;0.70;;
66966;SDS011;53900;51.468;-2.586;2023-08-06T10:47:41;2.22;;;0.60;;
66966;SDS011;53900;51.468;-2.586;2023-08-06T10:50:13;1.23;;;0.60;;
66966;SDS011;53900;51.468;-2.586;2023-08-06T10:52:39;1.17;;;0.68;;
66966;SDS011;53900;51.468;-2.586;2023-08-06T10:55:04;0.98;;;0.68;;
66966;SDS011;53900;51.468;-2.586;2023-08-06T10:57:30;0.50;;;0.50;;
66966;SDS011;53900;51.468;-2.586;2023-08-06T10:59:55;3.92;;;0.63;;
66966;SDS011;53900;51.468;-2.586;2023-08-06T11:02:20;1.90;;;0.80;;
66966;SDS011;53900;51.468;-2.586;2023-08-06T11:04:46;0.73;;;0.60;;
66966;SDS011;53900;51.468;-2.586;2023-08-06T11:07:11;3.65;;;0.70;;
66966;SDS011;53900;51.468;-2.586;2023-08-06T11:09:38;1.90;;;0.70;;
66966;SDS011;53900;51.468;-2.586;2023-08-06T11:12:07;1.73;;;0.80;;
66966;SDS011;53900;51.468;-2.586;2023-08-06T11:14:34;3.35;;;0.90;;
66966;SDS011;53900;51.468;-2.586;2023-08-06T11:16:59;4.72;;;0.80;;
66966;SDS011;53900;51.468;-2.586;2023-08-06T11:19:24;1.45;;;0.80;;
66966;SDS011;53900;51.468;-2.586;2023-08-06T11:21:51;1.23;;;0.70;;
66966;SDS011;53900;51.468;-2.586;2023-08-06T11:24:16;0.70;;;0.63;;
66966;SDS011;53900;51.468;-2.586;2023-08-06T11:26:42;1.02;;;0.80;;
66966;SDS011;53900;51.468;-2.586;2023-08-06T11:29:09;1.55;;;0.63;;
66966;SDS011;53900;51.468;-2.586;2023-08-06T11:31:35;3.28;;;0.70;;
66966;SDS011;53900;51.468;-2.586;2023-08-06T11:34:01;1.60;;;0.80;;
66966;SDS011;53900;51.468;-2.586;2023-08-06T11:38:54;2.03;;;0.80;;
66966;SDS011;53900;51.468;-2.586;2023-08-06T11:41:19;0.50;;;0.50;;
66966;SDS011;53900;51.468;-2.586;2023-08-06T11:43:45;2.92;;;0.60;;
66966;SDS011;53900;51.468;-2.586;2023-08-06T11:46:11;2.45;;;1.33;;
66966;SDS011;53900;51.468;-2.586;2023-08-06T11:48:50;1.08;;;0.60;;
66966;SDS011;53900;51.468;-2.586;2023-08-06T11:51:15;0.68;;;0.57;;
66966;SDS011;53900;51.468;-2.586;2023-08-06T11:53:41;1.88;;;0.68;;
66966;SDS011;53900;51.468;-2.586;2023-08-06T11:56:06;2.75;;;0.70;;
66966;SDS011;53900;51.468;-2.586;2023-08-06T11:58:31;1.65;;;0.70;;
66966;SDS011;53900;51.468;-2.586;2023-08-06T12:00:57;2.22;;;0.80;;
66966;SDS011;53900;51.468;-2.586;2023-08-06T12:03:23;1.30;;;0.98;;
66966;SDS011;53900;51.468;-2.586;2023-08-06T12:05:53;2.78;;;0.88;;
66966;SDS011;53900;51.468;-2.586;2023-08-06T12:08:19;1.35;;;0.70;;
66966;SDS011;53900;51.468;-2.586;2023-08-06T12:10:44;0.90;;;0.60;;
66966;SDS011;53900;51.468;-2.586;2023-08-06T12:13:11;2.38;;;0.75;;
66966;SDS011;53900;51.468;-2.586;2023-08-06T12:15:38;1.48;;;0.70;;
66966;SDS011;53900;51.468;-2.586;2023-08-06T12:18:03;0.70;;;0.70;;
66966;SDS011;53900;51.468;-2.586;2023-08-06T12:20:28;0.70;;;0.70;;
66966;SDS011;53900;51.468;-2.586;2023-08-06T12:22:53;4.43;;;0.60;;
66966;SDS011;53900;51.468;-2.586;2023-08-06T12:25:19;2.90;;;0.75;;
66966;SDS011;53900;51.468;-2.586;2023-08-06T12:27:44;1.20;;;0.60;;
66966;SDS011;53900;51.468;-2.586;2023-08-06T12:30:11;1.38;;;0.70;;
66966;SDS011;53900;51.468;-2.586;2023-08-06T12:32:36;1.05;;;0.50;;
66966;SDS011;53900;51.468;-2.586;2023-08-06T12:35:02;1.60;;;0.60;;
66966;SDS011;53900;51.468;-2.586;2023-08-06T12:37:28;0.70;;;0.63;;
66966;SDS011;53900;51.468;-2.586;2023-08-06T12:39:53;2.75;;;0.70;;
66966;SDS011;53900;51.468;-2.586;2023-08-06T12:42:18;1.52;;;0.68;;
66966;SDS011;53900;51.468;-2.586;2023-08-06T12:44:44;0.93;;;0.60;;
66966;SDS011;53900;51.468;-2.586;2023-08-06T12:47:09;0.93;;;0.60;;
66966;SDS011;53900;51.468;-2.586;2023-08-06T12:49:34;1.27;;;0.60;;
66966;SDS011;53900;51.468;-2.586;2023-08-06T12:51:59;3.85;;;0.73;;
66966;SDS011;53900;51.468;-2.586;2023-08-06T12:54:25;1.50;;;0.70;;
66966;SDS011;53900;51.468;-2.586;2023-08-06T12:56:50;2.05;;;0.70;;
66966;SDS011;53900;51.468;-2.586;2023-08-06T12:59:16;1.58;;;0.70;;
66966;SDS011;53900;51.468;-2.586;2023-08-06T13:01:42;3.42;;;0.70;;
66966;SDS011;53900;51.468;-2.586;2023-08-06T13:04:07;3.35;;;0.73;;
66966;SDS011;53900;51.468;-2.586;2023-08-06T13:06:33;0.68;;;0.68;;
66966;SDS011;53900;51.468;-2.586;2023-08-06T13:09:07;1.20;;;0.70;;
66966;SDS011;53900;51.468;-2.586;2023-08-06T13:11:33;2.20;;;0.80;;
66966;SDS011;53900;51.468;-2.586;2023-08-06T13:13:59;1.83;;;0.70;;
66966;SDS011;53900;51.468;-2.586;2023-08-06T13:16:24;1.20;;;0.60;;
66966;SDS011;53900;51.468;-2.586;2023-08-06T13:18:49;1.35;;;0.77;;
66966;SDS011;53900;51.468;-2.586;2023-08-06T13:21:14;1.85;;;0.73;;
66966;SDS011;53900;51.468;-2.586;2023-08-06T13:23:40;0.60;;;0.60;;
66966;SDS011;53900;51.468;-2.586;2023-08-06T13:26:05;1.98;;;0.70;;
66966;SDS011;53900;51.468;-2.586;2023-08-06T13:28:30;0.50;;;0.50;;
66966;SDS011;53900;51.468;-2.586;2023-08-06T13:30:55;0.90;;;0.70;;
66966;SDS011;53900;51.468;-2.586;2023-08-06T13:33:21;1.23;;;0.90;;
66966;SDS011;53900;51.468;-2.586;2023-08-06T13:35:46;1.58;;;0.70;;
66966;SDS011;53900;51.468;-2.586;2023-08-06T13:38:11;1.70;;;0.70;;
66966;SDS011;53900;51.468;-2.586;2023-08-06T13:40:36;1.30;;;0.80;;
66966;SDS011;53900;51.468;-2.586;2023-08-06T13:43:01;1.13;;;0.73;;
66966;SDS011;53900;51.468;-2.586;2023-08-06T13:45:27;1.23;;;0.80;;
66966;SDS011;53900;51.468;-2.586;2023-08-06T13:47:52;5.38;;;0.80;;
66966;SDS011;53900;51.468;-2.586;2023-08-06T13:50:17;3.33;;;0.80;;
66966;SDS011;53900;51.468;-2.586;2023-08-06T13:52:44;2.33;;;0.90;;
66966;SDS011;53900;51.468;-2.586;2023-08-06T13:55:09;0.70;;;0.70;;
66966;SDS011;53900;51.468;-2.586;2023-08-06T13:57:34;3.40;;;0.93;;
66966;SDS011;53900;51.468;-2.586;2023-08-06T14:00:00;1.08;;;0.80;;
66966;SDS011;53900;51.468;-2.586;2023-08-06T14:02:25;0.93;;;0.77;;
66966;SDS011;53900;51.468;-2.586;2023-08-06T14:04:52;1.40;;;0.70;;
66966;SDS011;53900;51.468;-2.586;2023-08-06T14:07:17;0.95;;;0.68;;
66966;SDS011;53900;51.468;-2.586;2023-08-06T14:09:42;1.52;;;0.85;;
66966;SDS011;53900;51.468;-2.586;2023-08-06T14:12:09;1.13;;;0.60;;
66966;SDS011;53900;51.468;-2.586;2023-08-06T14:14:34;0.75;;;0.70;;
66966;SDS011;53900;51.468;-2.586;2023-08-06T14:16:59;0.75;;;0.70;;
66966;SDS011;53900;51.468;-2.586;2023-08-06T14:19:25;1.42;;;0.90;;
66966;SDS011;53900;51.468;-2.586;2023-08-06T14:21:50;1.00;;;0.90;;
66966;SDS011;53900;51.468;-2.586;2023-08-06T14:24:15;1.90;;;0.88;;
66966;SDS011;53900;51.468;-2.586;2023-08-06T14:26:40;1.33;;;0.93;;
66966;SDS011;53900;51.468;-2.586;2023-08-06T14:29:06;1.90;;;0.90;;
66966;SDS011;53900;51.468;-2.586;2023-08-06T14:31:31;1.60;;;1.10;;
66966;SDS011;53900;51.468;-2.586;2023-08-06T14:33:56;1.65;;;0.98;;